Walter Investment Management (WAC) Latest Bloomsberg Price


Mffais Ranking #1601 Overall / #26 Industry
Industry: Mortgage Finance

Number of Companies: 47 (Ranking #2316 Overall/#38 Industry)
Inflow: $ 3,777 (K) (Ranking #2276 Overall/#35 Industry)
Outflow: $ -7,005 (K)
Mffais Flow: $ -3,227 (K) (Ranking #1601 Overall/#26 Industry)


Receive a FREE weekly executive review of stocks moving into the top 10, taking the top industy spot or moving up within their industry. Sent directly to your Inbox every Saturday. Sign up today and get last week's review immediately sent to you.

We value and respect your privacy. Please read our Terms and Conditions which states our firm commitment to your privacy. Your email address will not be shared with a third party, nor will it be sold or used for purposes other than subscription for the weekly review.

Owner CPOR Shares Action Qty Chg Invested (K) Total Current Value (K)
Arrowgrass Capital Partners Us Lp 2016-09-30 785,837 New Holding 785,837 $ 2,192 $ 2,192
Phoenix Investment Adviser Llc 2016-09-30 210,000 New Holding 210,000 $ 585 $ 585
Raging Capital Management Llc 2016-09-30 3,357,531 Added More 149,406 $ 416 $ 9,367
Goodhaven Capital Management Llc 2016-09-30 2,579,606 Added More 70,323 $ 196 $ 7,197
Kazazian Asset Management Llc 2016-09-30 50,000 New Holding 50,000 $ 139 $ 139
Her Majesty The Queen In Right Of The Province Of Alberta As 2016-09-30 39,200 New Holding 39,200 $ 109 $ 109
Parametric Portfolio Associates Llc 2016-09-30 69,550 Added More 22,699 $ 63 $ 194
Acrospire Investment Management Llc 2016-09-30 20,634 New Holding 20,634 $ 57 $ 57
Northern Trust Corp 2016-09-30 257,030 Added More 4,715 $ 13 $ 717
Trust Co Of Vermont 2016-09-30 854 New Holding 854 $ 2 $ 2
Creative Planning 2016-09-30 1,533 Added More 199 $ 0 $ 4
Sei Investments Co 2016-09-30 240 Added More 190 $ 0 $ 0
American International Group Inc 2016-09-30 11,171 Added More 16 $ 0 $ 31
Ladenburg Thalmann Financial Services Inc 2016-09-30 800 No Change 0 $ 0 $ 2
Dimensional Fund Advisors Lp 2016-09-30 20,314 No Change 0 $ 0 $ 56
New York State Common Retirement Fund 2016-09-30 15,000 No Change 0 $ 0 $ 41
Panagora Asset Management Inc 2016-09-30 894 No Change 0 $ 0 $ 2
Mackenzie Financial Corp 2016-09-30 10,000 No Change 0 $ 0 $ 27
Teachers Advisors Inc 2016-09-30 45,451 No Change 0 $ 0 $ 126
Nationwide Fund Advisors 2016-09-30 12,464 No Change 0 $ 0 $ 34
Blackrock Inc 2016-09-30 8,389 No Change 0 $ 0 $ 23
Zurcher Kantonalbank Zurich Cantonalbank 2016-09-30 480 No Change 0 $ 0 $ 1
Barnett Company Inc 2016-09-30 549 No Change 0 $ 0 $ 1
Baker Street Capital Management Llc 2016-09-30 8,677,524 No Change 0 $ 0 $ 24,210
Birch Run Capital Advisors Lp 2016-09-30 7,474,587 No Change 0 $ 0 $ 20,854
Swiss National Bank 2016-09-30 36,500 No Change 0 $ 0 $ 101
Ifp Advisors Inc 2016-09-30 22 No Change 0 $ 0 $ 0
Bronfman E L Rothschild L P 2016-09-30 0 Sold All -15 $ -0 $ 0
California State Teachers Retirement System 2016-09-30 38,931 Sold Some -200 $ -0 $ 108
Pnc Financial Services Group Inc 2016-09-30 0 Sold All -227 $ -0 $ 0
Rhumbline Advisers 2016-09-30 30,897 Sold Some -1,029 $ -2 $ 86
Walleye Trading Llc 2016-09-30 2,100 Sold Some -1,633 $ -4 $ 5
Group One Trading L P 2016-09-30 0 Sold All -2,150 $ -5 $ 0
Teacher Retirement System Of Texas 2016-09-30 0 Sold All -2,741 $ -7 $ 0
Blackrock Investment Management Llc 2016-09-30 85,079 Sold Some -2,979 $ -8 $ 237
Simplex Trading Llc 2016-09-30 0 Sold All -4,001 $ -11 $ 0
Tower Research Capital Llc Trc 2016-09-30 0 Sold All -5,011 $ -13 $ 0
Cutler Group Lp 2016-09-30 4,064 Sold Some -7,327 $ -20 $ 11
Cornerstone Capital Management Holdings Llc 2016-09-30 0 Sold All -8,191 $ -22 $ 0
Paradigm Capital Management Inc Ny 2016-09-30 0 Sold All -13,400 $ -37 $ 0
Legal General Group Plc 2016-09-30 5,250 Sold Some -16,997 $ -47 $ 14
Howe Rusling Inc 2016-09-30 0 Sold All -17,655 $ -49 $ 0
Squarepoint Ops Llc 2016-09-30 0 Sold All -33,986 $ -94 $ 0
A R T Advisors Llc 2016-09-30 0 Sold All -37,559 $ -104 $ 0
Telemus Capital Llc 2016-09-30 332,809 Sold Some -48,913 $ -136 $ 928
New South Capital Management Inc 2016-09-30 3,711,152 Sold Some -131,074 $ -365 $ 10,354
Southernsun Asset Management Llc 2016-09-30 0 Sold All -2,175,766 $ -6,070 $ 0